sensor_id;sensor_type;location;lat;lon;timestamp;P1;durP1;ratioP1;P2;durP2;ratioP2
19879;SDS011;10102;50.828;4.416;2023-04-04T00:01:56;4.38;;;2.45;;
19879;SDS011;10102;50.828;4.416;2023-04-04T00:04:24;4.05;;;2.78;;
19879;SDS011;10102;50.828;4.416;2023-04-04T00:06:53;4.97;;;2.55;;
19879;SDS011;10102;50.828;4.416;2023-04-04T00:09:19;4.90;;;2.90;;
19879;SDS011;10102;50.828;4.416;2023-04-04T00:11:45;2.97;;;1.92;;
19879;SDS011;10102;50.828;4.416;2023-04-04T00:14:11;3.58;;;2.45;;
19879;SDS011;10102;50.828;4.416;2023-04-04T00:16:37;5.75;;;3.15;;
19879;SDS011;10102;50.828;4.416;2023-04-04T00:19:03;4.90;;;2.70;;
19879;SDS011;10102;50.828;4.416;2023-04-04T00:21:29;9.25;;;2.88;;
19879;SDS011;10102;50.828;4.416;2023-04-04T00:23:57;8.82;;;2.83;;
19879;SDS011;10102;50.828;4.416;2023-04-04T00:26:23;5.53;;;2.72;;
19879;SDS011;10102;50.828;4.416;2023-04-04T00:28:50;7.28;;;2.78;;
19879;SDS011;10102;50.828;4.416;2023-04-04T00:31:16;4.43;;;2.60;;
19879;SDS011;10102;50.828;4.416;2023-04-04T00:33:43;4.30;;;2.38;;
19879;SDS011;10102;50.828;4.416;2023-04-04T00:36:09;4.93;;;2.45;;
19879;SDS011;10102;50.828;4.416;2023-04-04T00:38:35;8.50;;;2.55;;
19879;SDS011;10102;50.828;4.416;2023-04-04T00:41:01;5.05;;;2.38;;
19879;SDS011;10102;50.828;4.416;2023-04-04T00:43:27;3.55;;;2.38;;
19879;SDS011;10102;50.828;4.416;2023-04-04T00:45:53;4.75;;;2.40;;
19879;SDS011;10102;50.828;4.416;2023-04-04T00:48:19;3.03;;;2.28;;
19879;SDS011;10102;50.828;4.416;2023-04-04T00:50:45;5.88;;;2.53;;
19879;SDS011;10102;50.828;4.416;2023-04-04T00:53:11;8.90;;;2.38;;
19879;SDS011;10102;50.828;4.416;2023-04-04T00:55:37;5.40;;;2.58;;
19879;SDS011;10102;50.828;4.416;2023-04-04T00:58:03;2.88;;;2.10;;
19879;SDS011;10102;50.828;4.416;2023-04-04T01:00:31;5.53;;;2.75;;
19879;SDS011;10102;50.828;4.416;2023-04-04T01:02:59;6.65;;;2.53;;
19879;SDS011;10102;50.828;4.416;2023-04-04T01:05:25;4.90;;;2.40;;
19879;SDS011;10102;50.828;4.416;2023-04-04T01:07:51;5.20;;;2.67;;
19879;SDS011;10102;50.828;4.416;2023-04-04T01:10:17;3.08;;;2.20;;
19879;SDS011;10102;50.828;4.416;2023-04-04T01:12:42;2.30;;;2.03;;
19879;SDS011;10102;50.828;4.416;2023-04-04T01:15:08;4.43;;;2.55;;
19879;SDS011;10102;50.828;4.416;2023-04-04T01:17:35;4.53;;;2.78;;
19879;SDS011;10102;50.828;4.416;2023-04-04T01:20:03;4.00;;;2.50;;
19879;SDS011;10102;50.828;4.416;2023-04-04T01:22:32;4.82;;;2.80;;
19879;SDS011;10102;50.828;4.416;2023-04-04T01:24:59;5.57;;;2.72;;
19879;SDS011;10102;50.828;4.416;2023-04-04T01:27:26;4.85;;;3.10;;
19879;SDS011;10102;50.828;4.416;2023-04-04T01:29:52;4.68;;;2.53;;
19879;SDS011;10102;50.828;4.416;2023-04-04T01:32:19;7.65;;;3.03;;
19879;SDS011;10102;50.828;4.416;2023-04-04T01:40:20;5.60;;;2.47;;
19879;SDS011;10102;50.828;4.416;2023-04-04T01:42:48;3.22;;;2.50;;
19879;SDS011;10102;50.828;4.416;2023-04-04T01:45:15;4.78;;;2.67;;
19879;SDS011;10102;50.828;4.416;2023-04-04T01:47:41;3.47;;;2.60;;
19879;SDS011;10102;50.828;4.416;2023-04-04T01:50:08;7.15;;;2.90;;
19879;SDS011;10102;50.828;4.416;2023-04-04T01:52:35;7.00;;;2.40;;
19879;SDS011;10102;50.828;4.416;2023-04-04T01:55:02;3.67;;;2.63;;
19879;SDS011;10102;50.828;4.416;2023-04-04T01:57:28;5.95;;;2.80;;
19879;SDS011;10102;50.828;4.416;2023-04-04T01:59:55;6.63;;;2.67;;
19879;SDS011;10102;50.828;4.416;2023-04-04T02:02:21;4.20;;;2.42;;
19879;SDS011;10102;50.828;4.416;2023-04-04T02:04:47;6.28;;;3.13;;
19879;SDS011;10102;50.828;4.416;2023-04-04T02:07:13;8.13;;;2.78;;
19879;SDS011;10102;50.828;4.416;2023-04-04T02:09:39;4.57;;;2.58;;
19879;SDS011;10102;50.828;4.416;2023-04-04T02:12:06;7.60;;;2.97;;
19879;SDS011;10102;50.828;4.416;2023-04-04T02:14:32;5.32;;;2.88;;
19879;SDS011;10102;50.828;4.416;2023-04-04T02:16:58;5.57;;;2.67;;
19879;SDS011;10102;50.828;4.416;2023-04-04T02:19:24;4.93;;;2.55;;
19879;SDS011;10102;50.828;4.416;2023-04-04T02:21:51;3.95;;;2.58;;
19879;SDS011;10102;50.828;4.416;2023-04-04T02:24:16;6.10;;;2.28;;
19879;SDS011;10102;50.828;4.416;2023-04-04T02:26:42;3.20;;;2.80;;
19879;SDS011;10102;50.828;4.416;2023-04-04T02:29:08;5.22;;;2.67;;
19879;SDS011;10102;50.828;4.416;2023-04-04T02:31:34;3.67;;;2.83;;
19879;SDS011;10102;50.828;4.416;2023-04-04T02:33:59;4.50;;;2.83;;
19879;SDS011;10102;50.828;4.416;2023-04-04T02:36:25;3.30;;;2.50;;
19879;SDS011;10102;50.828;4.416;2023-04-04T02:38:51;8.80;;;3.08;;
19879;SDS011;10102;50.828;4.416;2023-04-04T02:41:17;4.85;;;2.92;;
19879;SDS011;10102;50.828;4.416;2023-04-04T02:43:43;12.30;;;3.05;;
19879;SDS011;10102;50.828;4.416;2023-04-04T02:46:08;3.60;;;2.85;;
19879;SDS011;10102;50.828;4.416;2023-04-04T02:48:34;10.52;;;2.88;;
19879;SDS011;10102;50.828;4.416;2023-04-04T02:51:00;4.35;;;2.95;;
19879;SDS011;10102;50.828;4.416;2023-04-04T02:53:26;4.75;;;3.20;;
19879;SDS011;10102;50.828;4.416;2023-04-04T02:55:52;5.68;;;3.40;;
19879;SDS011;10102;50.828;4.416;2023-04-04T02:58:17;4.97;;;2.70;;
19879;SDS011;10102;50.828;4.416;2023-04-04T03:00:44;9.98;;;3.08;;
19879;SDS011;10102;50.828;4.416;2023-04-04T03:03:11;2.92;;;2.63;;
19879;SDS011;10102;50.828;4.416;2023-04-04T03:05:36;4.70;;;2.63;;
19879;SDS011;10102;50.828;4.416;2023-04-04T03:08:03;7.00;;;2.65;;
19879;SDS011;10102;50.828;4.416;2023-04-04T03:10:28;7.70;;;3.20;;
19879;SDS011;10102;50.828;4.416;2023-04-04T03:12:54;5.45;;;3.03;;
19879;SDS011;10102;50.828;4.416;2023-04-04T03:15:21;4.38;;;2.90;;
19879;SDS011;10102;50.828;4.416;2023-04-04T03:17:47;4.63;;;3.05;;
19879;SDS011;10102;50.828;4.416;2023-04-04T03:20:13;6.57;;;3.25;;
19879;SDS011;10102;50.828;4.416;2023-04-04T03:22:40;7.82;;;3.22;;
19879;SDS011;10102;50.828;4.416;2023-04-04T03:25:07;7.50;;;2.85;;
19879;SDS011;10102;50.828;4.416;2023-04-04T03:27:33;5.20;;;2.95;;
19879;SDS011;10102;50.828;4.416;2023-04-04T03:29:58;4.93;;;2.60;;
19879;SDS011;10102;50.828;4.416;2023-04-04T03:32:25;4.28;;;2.90;;
19879;SDS011;10102;50.828;4.416;2023-04-04T03:34:51;3.67;;;2.78;;
19879;SDS011;10102;50.828;4.416;2023-04-04T03:37:17;4.95;;;2.78;;
19879;SDS011;10102;50.828;4.416;2023-04-04T03:39:42;7.88;;;3.20;;
19879;SDS011;10102;50.828;4.416;2023-04-04T03:42:08;4.78;;;3.13;;
19879;SDS011;10102;50.828;4.416;2023-04-04T03:44:35;10.35;;;3.05;;
19879;SDS011;10102;50.828;4.416;2023-04-04T03:47:03;4.50;;;3.20;;
19879;SDS011;10102;50.828;4.416;2023-04-04T03:49:29;6.35;;;3.17;;
19879;SDS011;10102;50.828;4.416;2023-04-04T03:51:57;7.53;;;3.38;;
19879;SDS011;10102;50.828;4.416;2023-04-04T03:54:22;8.98;;;3.30;;
19879;SDS011;10102;50.828;4.416;2023-04-04T03:56:48;5.05;;;3.25;;
19879;SDS011;10102;50.828;4.416;2023-04-04T03:59:14;6.00;;;2.95;;
19879;SDS011;10102;50.828;4.416;2023-04-04T04:01:39;5.25;;;2.92;;
19879;SDS011;10102;50.828;4.416;2023-04-04T04:04:05;8.98;;;3.45;;
19879;SDS011;10102;50.828;4.416;2023-04-04T04:06:31;7.47;;;3.00;;
19879;SDS011;10102;50.828;4.416;2023-04-04T04:08:56;4.75;;;2.78;;
19879;SDS011;10102;50.828;4.416;2023-04-04T04:11:22;4.68;;;3.13;;
19879;SDS011;10102;50.828;4.416;2023-04-04T04:13:48;6.43;;;3.20;;
19879;SDS011;10102;50.828;4.416;2023-04-04T04:16:14;6.25;;;3.53;;
19879;SDS011;10102;50.828;4.416;2023-04-04T04:18:41;7.72;;;3.15;;
19879;SDS011;10102;50.828;4.416;2023-04-04T04:21:07;9.93;;;3.50;;
19879;SDS011;10102;50.828;4.416;2023-04-04T04:23:33;7.85;;;3.25;;
19879;SDS011;10102;50.828;4.416;2023-04-04T04:25:59;4.25;;;2.92;;
19879;SDS011;10102;50.828;4.416;2023-04-04T04:28:25;7.75;;;3.13;;
19879;SDS011;10102;50.828;4.416;2023-04-04T04:30:50;5.80;;;3.20;;
19879;SDS011;10102;50.828;4.416;2023-04-04T04:33:17;10.73;;;3.15;;
19879;SDS011;10102;50.828;4.416;2023-04-04T04:35:43;6.00;;;3.00;;
19879;SDS011;10102;50.828;4.416;2023-04-04T04:38:09;8.02;;;3.33;;
19879;SDS011;10102;50.828;4.416;2023-04-04T04:40:35;10.45;;;3.33;;
19879;SDS011;10102;50.828;4.416;2023-04-04T04:43:01;4.43;;;3.35;;
19879;SDS011;10102;50.828;4.416;2023-04-04T04:45:27;4.22;;;3.25;;
19879;SDS011;10102;50.828;4.416;2023-04-04T04:47:53;8.60;;;3.05;;
19879;SDS011;10102;50.828;4.416;2023-04-04T04:50:19;5.30;;;3.70;;
19879;SDS011;10102;50.828;4.416;2023-04-04T04:52:45;8.88;;;3.75;;
19879;SDS011;10102;50.828;4.416;2023-04-04T04:55:11;4.90;;;3.47;;
19879;SDS011;10102;50.828;4.416;2023-04-04T04:57:37;9.27;;;3.70;;
19879;SDS011;10102;50.828;4.416;2023-04-04T05:00:03;6.93;;;4.00;;
19879;SDS011;10102;50.828;4.416;2023-04-04T05:02:29;4.63;;;3.63;;
19879;SDS011;10102;50.828;4.416;2023-04-04T05:04:55;7.53;;;3.65;;
19879;SDS011;10102;50.828;4.416;2023-04-04T05:07:22;6.95;;;3.35;;
19879;SDS011;10102;50.828;4.416;2023-04-04T05:09:49;8.65;;;3.33;;
19879;SDS011;10102;50.828;4.416;2023-04-04T05:12:15;8.30;;;4.00;;
19879;SDS011;10102;50.828;4.416;2023-04-04T05:14:42;5.50;;;3.50;;
19879;SDS011;10102;50.828;4.416;2023-04-04T05:17:08;4.63;;;3.50;;
19879;SDS011;10102;50.828;4.416;2023-04-04T05:19:34;7.35;;;3.63;;
19879;SDS011;10102;50.828;4.416;2023-04-04T05:22:00;6.15;;;3.67;;
19879;SDS011;10102;50.828;4.416;2023-04-04T05:24:26;6.80;;;3.63;;
19879;SDS011;10102;50.828;4.416;2023-04-04T05:26:52;9.43;;;3.57;;
19879;SDS011;10102;50.828;4.416;2023-04-04T05:29:18;9.17;;;3.57;;
19879;SDS011;10102;50.828;4.416;2023-04-04T05:31:44;7.60;;;3.53;;
19879;SDS011;10102;50.828;4.416;2023-04-04T05:34:10;6.82;;;3.90;;
19879;SDS011;10102;50.828;4.416;2023-04-04T05:36:36;8.43;;;4.00;;
19879;SDS011;10102;50.828;4.416;2023-04-04T05:39:02;6.13;;;3.85;;
19879;SDS011;10102;50.828;4.416;2023-04-04T05:41:31;7.00;;;4.13;;
19879;SDS011;10102;50.828;4.416;2023-04-04T05:43:57;7.23;;;3.63;;
19879;SDS011;10102;50.828;4.416;2023-04-04T05:46:23;4.70;;;3.40;;
19879;SDS011;10102;50.828;4.416;2023-04-04T05:48:50;9.03;;;3.30;;
19879;SDS011;10102;50.828;4.416;2023-04-04T05:51:16;7.80;;;3.67;;
19879;SDS011;10102;50.828;4.416;2023-04-04T05:53:42;5.90;;;3.97;;
19879;SDS011;10102;50.828;4.416;2023-04-04T05:56:10;8.80;;;4.15;;
19879;SDS011;10102;50.828;4.416;2023-04-04T05:58:36;7.10;;;3.97;;
19879;SDS011;10102;50.828;4.416;2023-04-04T06:01:10;5.03;;;3.60;;
19879;SDS011;10102;50.828;4.416;2023-04-04T06:03:36;7.50;;;3.58;;
19879;SDS011;10102;50.828;4.416;2023-04-04T06:06:02;8.82;;;3.83;;
19879;SDS011;10102;50.828;4.416;2023-04-04T06:08:29;6.13;;;3.80;;
19879;SDS011;10102;50.828;4.416;2023-04-04T06:10:55;7.45;;;3.83;;
19879;SDS011;10102;50.828;4.416;2023-04-04T06:13:21;4.90;;;3.78;;
19879;SDS011;10102;50.828;4.416;2023-04-04T06:15:47;5.35;;;3.88;;
19879;SDS011;10102;50.828;4.416;2023-04-04T06:18:12;9.90;;;4.30;;
19879;SDS011;10102;50.828;4.416;2023-04-04T06:20:38;10.98;;;3.85;;
19879;SDS011;10102;50.828;4.416;2023-04-04T06:23:04;13.23;;;3.85;;
19879;SDS011;10102;50.828;4.416;2023-04-04T06:25:30;8.68;;;4.55;;
19879;SDS011;10102;50.828;4.416;2023-04-04T06:27:56;7.57;;;3.55;;
19879;SDS011;10102;50.828;4.416;2023-04-04T06:30:23;10.30;;;4.20;;
19879;SDS011;10102;50.828;4.416;2023-04-04T06:32:49;12.05;;;4.22;;
19879;SDS011;10102;50.828;4.416;2023-04-04T06:35:15;11.50;;;4.38;;
19879;SDS011;10102;50.828;4.416;2023-04-04T06:37:40;11.55;;;3.55;;
19879;SDS011;10102;50.828;4.416;2023-04-04T06:40:07;5.75;;;3.80;;
19879;SDS011;10102;50.828;4.416;2023-04-04T06:42:33;6.53;;;3.72;;
19879;SDS011;10102;50.828;4.416;2023-04-04T06:44:59;8.35;;;3.65;;
19879;SDS011;10102;50.828;4.416;2023-04-04T06:47:24;15.65;;;3.90;;
19879;SDS011;10102;50.828;4.416;2023-04-04T06:49:51;12.75;;;3.55;;
19879;SDS011;10102;50.828;4.416;2023-04-04T06:52:17;11.88;;;4.05;;
19879;SDS011;10102;50.828;4.416;2023-04-04T06:54:42;7.15;;;3.95;;
19879;SDS011;10102;50.828;4.416;2023-04-04T06:57:09;9.27;;;3.75;;
19879;SDS011;10102;50.828;4.416;2023-04-04T06:59:35;7.40;;;3.63;;
19879;SDS011;10102;50.828;4.416;2023-04-04T07:02:01;4.93;;;3.15;;
19879;SDS011;10102;50.828;4.416;2023-04-04T07:04:26;8.63;;;3.50;;
19879;SDS011;10102;50.828;4.416;2023-04-04T07:06:52;4.47;;;3.13;;
19879;SDS011;10102;50.828;4.416;2023-04-04T07:09:18;6.38;;;3.33;;
19879;SDS011;10102;50.828;4.416;2023-04-04T07:11:43;7.00;;;3.40;;
19879;SDS011;10102;50.828;4.416;2023-04-04T07:14:09;7.90;;;3.08;;
19879;SDS011;10102;50.828;4.416;2023-04-04T07:16:35;7.30;;;3.55;;
19879;SDS011;10102;50.828;4.416;2023-04-04T07:19:01;6.97;;;2.70;;
19879;SDS011;10102;50.828;4.416;2023-04-04T07:21:26;5.90;;;3.10;;
19879;SDS011;10102;50.828;4.416;2023-04-04T07:23:53;6.68;;;3.20;;
19879;SDS011;10102;50.828;4.416;2023-04-04T07:26:18;8.73;;;3.20;;
19879;SDS011;10102;50.828;4.416;2023-04-04T07:28:45;5.55;;;2.97;;
19879;SDS011;10102;50.828;4.416;2023-04-04T07:31:11;5.50;;;3.05;;
19879;SDS011;10102;50.828;4.416;2023-04-04T07:33:38;6.80;;;2.97;;
19879;SDS011;10102;50.828;4.416;2023-04-04T07:36:04;4.50;;;2.55;;
19879;SDS011;10102;50.828;4.416;2023-04-04T07:38:30;5.70;;;2.78;;
19879;SDS011;10102;50.828;4.416;2023-04-04T07:40:56;6.93;;;2.67;;
19879;SDS011;10102;50.828;4.416;2023-04-04T07:43:22;5.38;;;2.78;;
19879;SDS011;10102;50.828;4.416;2023-04-04T07:45:48;6.10;;;2.97;;
19879;SDS011;10102;50.828;4.416;2023-04-04T07:48:14;5.07;;;2.92;;
19879;SDS011;10102;50.828;4.416;2023-04-04T07:50:39;6.55;;;2.70;;
19879;SDS011;10102;50.828;4.416;2023-04-04T07:53:05;6.68;;;2.72;;
19879;SDS011;10102;50.828;4.416;2023-04-04T07:55:31;6.28;;;2.85;;
19879;SDS011;10102;50.828;4.416;2023-04-04T07:57:57;5.60;;;3.03;;
19879;SDS011;10102;50.828;4.416;2023-04-04T08:00:22;7.00;;;2.60;;
19879;SDS011;10102;50.828;4.416;2023-04-04T08:02:54;4.60;;;2.55;;
19879;SDS011;10102;50.828;4.416;2023-04-04T08:05:20;5.63;;;2.85;;
19879;SDS011;10102;50.828;4.416;2023-04-04T08:07:46;6.63;;;2.92;;
19879;SDS011;10102;50.828;4.416;2023-04-04T08:10:11;10.15;;;2.83;;
19879;SDS011;10102;50.828;4.416;2023-04-04T08:12:37;5.75;;;2.55;;
19879;SDS011;10102;50.828;4.416;2023-04-04T08:15:04;6.38;;;2.50;;
19879;SDS011;10102;50.828;4.416;2023-04-04T08:17:31;7.55;;;2.75;;
19879;SDS011;10102;50.828;4.416;2023-04-04T08:19:57;3.67;;;2.80;;
19879;SDS011;10102;50.828;4.416;2023-04-04T08:22:23;4.13;;;2.60;;
19879;SDS011;10102;50.828;4.416;2023-04-04T08:24:48;5.05;;;2.65;;
19879;SDS011;10102;50.828;4.416;2023-04-04T08:27:14;8.57;;;2.75;;
19879;SDS011;10102;50.828;4.416;2023-04-04T08:29:41;9.55;;;2.72;;
19879;SDS011;10102;50.828;4.416;2023-04-04T08:32:08;3.70;;;2.60;;
19879;SDS011;10102;50.828;4.416;2023-04-04T08:34:33;4.32;;;2.50;;
19879;SDS011;10102;50.828;4.416;2023-04-04T08:36:59;5.32;;;2.70;;
19879;SDS011;10102;50.828;4.416;2023-04-04T08:39:25;7.07;;;2.83;;
19879;SDS011;10102;50.828;4.416;2023-04-04T08:42:03;5.75;;;2.08;;
19879;SDS011;10102;50.828;4.416;2023-04-04T08:44:30;4.45;;;2.60;;
19879;SDS011;10102;50.828;4.416;2023-04-04T08:47:04;4.68;;;2.40;;
19879;SDS011;10102;50.828;4.416;2023-04-04T08:49:34;5.65;;;2.45;;
19879;SDS011;10102;50.828;4.416;2023-04-04T08:52:05;4.50;;;2.47;;
19879;SDS011;10102;50.828;4.416;2023-04-04T08:54:32;4.18;;;2.45;;
19879;SDS011;10102;50.828;4.416;2023-04-04T08:56:59;4.50;;;2.15;;
19879;SDS011;10102;50.828;4.416;2023-04-04T08:59:26;9.77;;;2.60;;
19879;SDS011;10102;50.828;4.416;2023-04-04T09:01:56;5.40;;;2.50;;
19879;SDS011;10102;50.828;4.416;2023-04-04T09:04:29;3.42;;;2.40;;
19879;SDS011;10102;50.828;4.416;2023-04-04T09:06:56;4.93;;;2.60;;
19879;SDS011;10102;50.828;4.416;2023-04-04T09:09:22;4.03;;;2.60;;
19879;SDS011;10102;50.828;4.416;2023-04-04T09:11:49;3.13;;;2.33;;
19879;SDS011;10102;50.828;4.416;2023-04-04T09:14:16;5.45;;;2.47;;
19879;SDS011;10102;50.828;4.416;2023-04-04T09:16:53;3.65;;;2.15;;
19879;SDS011;10102;50.828;4.416;2023-04-04T09:19:19;5.22;;;2.45;;
19879;SDS011;10102;50.828;4.416;2023-04-04T09:21:46;5.47;;;2.47;;
19879;SDS011;10102;50.828;4.416;2023-04-04T09:24:12;7.75;;;2.30;;
19879;SDS011;10102;50.828;4.416;2023-04-04T09:26:51;4.30;;;2.55;;
19879;SDS011;10102;50.828;4.416;2023-04-04T09:29:18;5.70;;;2.97;;
19879;SDS011;10102;50.828;4.416;2023-04-04T09:31:45;4.72;;;2.40;;
19879;SDS011;10102;50.828;4.416;2023-04-04T09:34:13;3.95;;;2.78;;
19879;SDS011;10102;50.828;4.416;2023-04-04T09:36:41;5.05;;;3.05;;
19879;SDS011;10102;50.828;4.416;2023-04-04T09:39:09;4.28;;;2.70;;
19879;SDS011;10102;50.828;4.416;2023-04-04T09:41:38;4.47;;;2.42;;
19879;SDS011;10102;50.828;4.416;2023-04-04T09:44:05;4.88;;;2.47;;
19879;SDS011;10102;50.828;4.416;2023-04-04T09:46:31;3.67;;;2.28;;
19879;SDS011;10102;50.828;4.416;2023-04-04T09:48:59;5.65;;;2.50;;
19879;SDS011;10102;50.828;4.416;2023-04-04T09:51:32;6.90;;;2.72;;
19879;SDS011;10102;50.828;4.416;2023-04-04T09:53:59;4.82;;;2.40;;
19879;SDS011;10102;50.828;4.416;2023-04-04T09:56:26;6.25;;;3.00;;
19879;SDS011;10102;50.828;4.416;2023-04-04T09:58:52;3.22;;;2.40;;
19879;SDS011;10102;50.828;4.416;2023-04-04T10:01:18;8.90;;;2.58;;
19879;SDS011;10102;50.828;4.416;2023-04-04T10:03:54;5.47;;;2.50;;
19879;SDS011;10102;50.828;4.416;2023-04-04T10:06:21;9.90;;;2.47;;
19879;SDS011;10102;50.828;4.416;2023-04-04T10:08:48;6.25;;;2.58;;
19879;SDS011;10102;50.828;4.416;2023-04-04T10:11:26;9.80;;;3.20;;
19879;SDS011;10102;50.828;4.416;2023-04-04T10:13:53;6.65;;;2.30;;
19879;SDS011;10102;50.828;4.416;2023-04-04T10:16:22;8.13;;;2.78;;
19879;SDS011;10102;50.828;4.416;2023-04-04T10:18:49;5.38;;;2.85;;
19879;SDS011;10102;50.828;4.416;2023-04-04T10:21:16;4.25;;;3.08;;
19879;SDS011;10102;50.828;4.416;2023-04-04T10:23:45;6.65;;;3.00;;
19879;SDS011;10102;50.828;4.416;2023-04-04T10:26:12;6.15;;;2.97;;
19879;SDS011;10102;50.828;4.416;2023-04-04T10:28:38;8.50;;;3.00;;
19879;SDS011;10102;50.828;4.416;2023-04-04T10:36:21;6.55;;;3.00;;
19879;SDS011;10102;50.828;4.416;2023-04-04T10:39:01;7.00;;;3.13;;
19879;SDS011;10102;50.828;4.416;2023-04-04T10:41:31;7.65;;;3.10;;
19879;SDS011;10102;50.828;4.416;2023-04-04T10:43:59;4.88;;;2.97;;
19879;SDS011;10102;50.828;4.416;2023-04-04T10:46:33;5.43;;;3.05;;
19879;SDS011;10102;50.828;4.416;2023-04-04T10:49:02;8.52;;;2.97;;
19879;SDS011;10102;50.828;4.416;2023-04-04T10:51:29;5.40;;;3.10;;
19879;SDS011;10102;50.828;4.416;2023-04-04T10:53:55;9.50;;;3.03;;
19879;SDS011;10102;50.828;4.416;2023-04-04T10:56:22;6.68;;;3.17;;
19879;SDS011;10102;50.828;4.416;2023-04-04T10:58:48;6.68;;;3.25;;
19879;SDS011;10102;50.828;4.416;2023-04-04T11:01:14;3.97;;;2.78;;
19879;SDS011;10102;50.828;4.416;2023-04-04T11:09:45;5.70;;;2.67;;
19879;SDS011;10102;50.828;4.416;2023-04-04T11:12:14;5.72;;;3.17;;
19879;SDS011;10102;50.828;4.416;2023-04-04T11:15:26;4.47;;;2.85;;
19879;SDS011;10102;50.828;4.416;2023-04-04T11:17:48;6.50;;;2.90;;
19879;SDS011;10102;50.828;4.416;2023-04-04T11:20:28;5.63;;;3.00;;
19879;SDS011;10102;50.828;4.416;2023-04-04T11:25:32;4.28;;;2.53;;
19879;SDS011;10102;50.828;4.416;2023-04-04T11:28:02;6.50;;;2.92;;
19879;SDS011;10102;50.828;4.416;2023-04-04T11:30:40;8.18;;;3.03;;
19879;SDS011;10102;50.828;4.416;2023-04-04T11:33:12;6.13;;;3.05;;
19879;SDS011;10102;50.828;4.416;2023-04-04T11:35:50;5.05;;;3.20;;
19879;SDS011;10102;50.828;4.416;2023-04-04T11:38:15;6.45;;;3.15;;
19879;SDS011;10102;50.828;4.416;2023-04-04T11:40:41;8.85;;;3.22;;
19879;SDS011;10102;50.828;4.416;2023-04-04T11:43:17;6.82;;;2.90;;
19879;SDS011;10102;50.828;4.416;2023-04-04T11:45:44;4.97;;;2.90;;
19879;SDS011;10102;50.828;4.416;2023-04-04T11:48:11;4.70;;;3.03;;
19879;SDS011;10102;50.828;4.416;2023-04-04T11:50:43;8.20;;;2.85;;
19879;SDS011;10102;50.828;4.416;2023-04-04T11:53:13;4.28;;;2.67;;
19879;SDS011;10102;50.828;4.416;2023-04-04T11:55:43;7.10;;;2.30;;
19879;SDS011;10102;50.828;4.416;2023-04-04T11:58:12;5.80;;;3.08;;
19879;SDS011;10102;50.828;4.416;2023-04-04T12:00:40;5.45;;;2.85;;
19879;SDS011;10102;50.828;4.416;2023-04-04T12:03:08;8.77;;;2.92;;
19879;SDS011;10102;50.828;4.416;2023-04-04T12:05:38;3.55;;;2.60;;
19879;SDS011;10102;50.828;4.416;2023-04-04T12:08:06;7.43;;;3.10;;
19879;SDS011;10102;50.828;4.416;2023-04-04T12:10:33;7.68;;;3.10;;
19879;SDS011;10102;50.828;4.416;2023-04-04T12:13:00;3.72;;;2.55;;
19879;SDS011;10102;50.828;4.416;2023-04-04T12:15:29;5.50;;;3.33;;
19879;SDS011;10102;50.828;4.416;2023-04-04T12:17:55;6.25;;;2.80;;
19879;SDS011;10102;50.828;4.416;2023-04-04T12:20:21;6.88;;;3.13;;
19879;SDS011;10102;50.828;4.416;2023-04-04T12:22:48;5.72;;;2.58;;
19879;SDS011;10102;50.828;4.416;2023-04-04T12:25:16;6.30;;;2.50;;
19879;SDS011;10102;50.828;4.416;2023-04-04T12:27:46;5.32;;;3.13;;
19879;SDS011;10102;50.828;4.416;2023-04-04T12:30:14;6.43;;;2.63;;
19879;SDS011;10102;50.828;4.416;2023-04-04T12:32:42;5.07;;;3.03;;
19879;SDS011;10102;50.828;4.416;2023-04-04T12:35:13;3.40;;;2.60;;
19879;SDS011;10102;50.828;4.416;2023-04-04T12:38:01;5.55;;;2.47;;
19879;SDS011;10102;50.828;4.416;2023-04-04T12:40:32;5.70;;;2.60;;
19879;SDS011;10102;50.828;4.416;2023-04-04T12:43:02;4.97;;;2.50;;
19879;SDS011;10102;50.828;4.416;2023-04-04T12:45:31;4.22;;;2.33;;
19879;SDS011;10102;50.828;4.416;2023-04-04T12:48:00;6.05;;;2.63;;
19879;SDS011;10102;50.828;4.416;2023-04-04T12:50:54;6.35;;;3.35;;
19879;SDS011;10102;50.828;4.416;2023-04-04T12:53:21;4.75;;;2.65;;
19879;SDS011;10102;50.828;4.416;2023-04-04T12:55:48;4.63;;;2.60;;
19879;SDS011;10102;50.828;4.416;2023-04-04T12:58:15;7.47;;;2.95;;
19879;SDS011;10102;50.828;4.416;2023-04-04T13:00:46;6.97;;;3.13;;
19879;SDS011;10102;50.828;4.416;2023-04-04T13:03:16;5.32;;;2.95;;
19879;SDS011;10102;50.828;4.416;2023-04-04T13:05:48;6.85;;;3.22;;
19879;SDS011;10102;50.828;4.416;2023-04-04T13:08:16;4.60;;;2.60;;
19879;SDS011;10102;50.828;4.416;2023-04-04T13:10:56;6.78;;;2.70;;
19879;SDS011;10102;50.828;4.416;2023-04-04T13:13:29;7.10;;;2.50;;
19879;SDS011;10102;50.828;4.416;2023-04-04T13:15:55;6.00;;;3.00;;
19879;SDS011;10102;50.828;4.416;2023-04-04T13:18:22;12.23;;;3.25;;
19879;SDS011;10102;50.828;4.416;2023-04-04T13:20:51;5.65;;;2.90;;
19879;SDS011;10102;50.828;4.416;2023-04-04T13:23:19;4.00;;;3.00;;
19879;SDS011;10102;50.828;4.416;2023-04-04T13:25:45;6.22;;;3.20;;
19879;SDS011;10102;50.828;4.416;2023-04-04T13:28:11;6.40;;;2.78;;
19879;SDS011;10102;50.828;4.416;2023-04-04T13:30:37;7.00;;;3.47;;
19879;SDS011;10102;50.828;4.416;2023-04-04T13:33:16;7.88;;;3.10;;
19879;SDS011;10102;50.828;4.416;2023-04-04T13:35:43;3.92;;;2.70;;
19879;SDS011;10102;50.828;4.416;2023-04-04T13:38:10;5.88;;;3.00;;
19879;SDS011;10102;50.828;4.416;2023-04-04T13:40:36;5.68;;;3.15;;
19879;SDS011;10102;50.828;4.416;2023-04-04T13:43:02;3.88;;;2.78;;
19879;SDS011;10102;50.828;4.416;2023-04-04T13:45:27;5.40;;;3.15;;
19879;SDS011;10102;50.828;4.416;2023-04-04T13:47:56;5.35;;;3.22;;
19879;SDS011;10102;50.828;4.416;2023-04-04T13:50:21;5.05;;;2.63;;
19879;SDS011;10102;50.828;4.416;2023-04-04T13:52:47;5.10;;;3.38;;
19879;SDS011;10102;50.828;4.416;2023-04-04T13:55:13;7.40;;;3.17;;
19879;SDS011;10102;50.828;4.416;2023-04-04T13:57:38;4.07;;;2.83;;
19879;SDS011;10102;50.828;4.416;2023-04-04T14:00:04;3.83;;;2.88;;
19879;SDS011;10102;50.828;4.416;2023-04-04T14:02:30;5.53;;;3.38;;
19879;SDS011;10102;50.828;4.416;2023-04-04T14:04:56;4.57;;;3.00;;
19879;SDS011;10102;50.828;4.416;2023-04-04T14:07:21;4.18;;;2.75;;
19879;SDS011;10102;50.828;4.416;2023-04-04T14:09:47;6.53;;;3.30;;
19879;SDS011;10102;50.828;4.416;2023-04-04T14:12:13;6.72;;;3.45;;
19879;SDS011;10102;50.828;4.416;2023-04-04T14:14:39;5.80;;;3.30;;
19879;SDS011;10102;50.828;4.416;2023-04-04T14:17:05;6.32;;;3.35;;
19879;SDS011;10102;50.828;4.416;2023-04-04T14:19:31;6.10;;;3.45;;
19879;SDS011;10102;50.828;4.416;2023-04-04T14:21:56;8.10;;;3.15;;
19879;SDS011;10102;50.828;4.416;2023-04-04T14:24:22;6.60;;;3.50;;
19879;SDS011;10102;50.828;4.416;2023-04-04T14:26:48;6.50;;;3.10;;
19879;SDS011;10102;50.828;4.416;2023-04-04T14:29:13;9.32;;;3.15;;
19879;SDS011;10102;50.828;4.416;2023-04-04T14:31:40;5.45;;;3.33;;
19879;SDS011;10102;50.828;4.416;2023-04-04T14:34:06;7.85;;;3.95;;
19879;SDS011;10102;50.828;4.416;2023-04-04T14:36:32;7.20;;;3.20;;
19879;SDS011;10102;50.828;4.416;2023-04-04T14:38:58;3.78;;;3.10;;
19879;SDS011;10102;50.828;4.416;2023-04-04T14:41:24;6.35;;;3.63;;
19879;SDS011;10102;50.828;4.416;2023-04-04T14:43:50;7.93;;;3.63;;
19879;SDS011;10102;50.828;4.416;2023-04-04T14:46:16;4.95;;;3.30;;
19879;SDS011;10102;50.828;4.416;2023-04-04T14:48:43;7.70;;;3.92;;
19879;SDS011;10102;50.828;4.416;2023-04-04T14:51:09;5.53;;;3.65;;
19879;SDS011;10102;50.828;4.416;2023-04-04T14:53:34;5.20;;;3.50;;
19879;SDS011;10102;50.828;4.416;2023-04-04T14:56:00;5.88;;;3.33;;
19879;SDS011;10102;50.828;4.416;2023-04-04T14:58:26;4.68;;;3.22;;
19879;SDS011;10102;50.828;4.416;2023-04-04T15:00:52;6.43;;;3.38;;
19879;SDS011;10102;50.828;4.416;2023-04-04T15:03:17;3.22;;;2.88;;
19879;SDS011;10102;50.828;4.416;2023-04-04T15:05:43;5.20;;;3.53;;
19879;SDS011;10102;50.828;4.416;2023-04-04T15:08:09;5.45;;;3.55;;